Time;durP1;ratioP1;P1;durP2;ratioP2;P2;SDS_P1;SDS_P2;PMS_P1;PMS_P2;Temp;Humidity;BMP_temperature;BMP_pressure;BME280_temperature;BME280_humidity;BME280_pressure;Samples;Min_cycle;Max_cycle;Signal;HPM_P1;HPM_P2
2022/11/23 00:00:01;;;;;;;22.33;13.63;;;7.20;99.90;;;;;;5005476;28;20515;-69
2022/11/23 00:02:27;;;;;;;22.77;14.35;;;7.20;99.90;;;;;;5000266;28;20074;-70
2022/11/23 00:04:52;;;;;;;22.63;13.10;;;7.20;99.90;;;;;;5005908;28;20084;-69
2022/11/23 00:07:18;;;;;;;21.13;14.10;;;7.20;99.90;;;;;;5004273;28;20108;-70
2022/11/23 00:09:44;;;;;;;27.40;14.13;;;7.20;99.90;;;;;;5004643;28;20130;-71
2022/11/23 00:12:10;;;;;;;23.23;13.70;;;7.20;99.90;;;;;;5005827;28;20129;-71
2022/11/23 00:14:36;;;;;;;21.83;13.50;;;7.30;99.90;;;;;;5005952;28;20148;-71
2022/11/23 00:17:02;;;;;;;20.85;13.88;;;7.30;99.90;;;;;;5004042;28;20160;-71
2022/11/23 00:19:27;;;;;;;20.33;12.98;;;7.30;99.90;;;;;;5005643;28;20115;-71
2022/11/23 00:21:53;;;;;;;23.15;14.02;;;7.30;99.90;;;;;;4988484;28;20041;-71
2022/11/23 00:24:19;;;;;;;20.25;13.10;;;7.40;99.90;;;;;;4988906;28;20064;-71
2022/11/23 00:26:44;;;;;;;22.17;12.73;;;7.30;99.90;;;;;;5007051;28;20445;-71
2022/11/23 00:29:10;;;;;;;22.98;13.43;;;7.40;99.90;;;;;;4990383;28;20042;-71
2022/11/23 00:31:36;;;;;;;20.95;12.07;;;7.40;99.90;;;;;;5005036;28;20069;-72
2022/11/23 00:34:01;;;;;;;19.58;12.68;;;7.40;99.90;;;;;;5007138;28;20045;-72
2022/11/23 00:36:27;;;;;;;22.08;12.02;;;7.40;99.90;;;;;;5006467;28;20084;-72
2022/11/23 00:38:53;;;;;;;22.35;11.90;;;7.40;99.90;;;;;;5005163;28;20092;-72
2022/11/23 00:41:22;;;;;;;22.27;12.30;;;7.40;99.90;;;;;;5000489;28;20053;-71
2022/11/23 00:43:48;;;;;;;19.95;11.65;;;7.40;99.90;;;;;;5001162;28;20499;-71
2022/11/23 00:46:27;;;;;;;19.75;12.27;;;7.40;99.90;;;;;;5001322;28;20033;-71
2022/11/23 00:48:55;;;;;;;18.75;11.52;;;7.40;99.90;;;;;;4997357;28;20046;-71
2022/11/23 00:51:33;;;;;;;17.75;10.90;;;7.50;99.90;;;;;;4981706;28;20160;-71
2022/11/23 00:53:59;;;;;;;17.55;11.10;;;7.50;99.90;;;;;;4995789;28;20041;-70
2022/11/23 00:56:26;;;;;;;15.95;10.88;;;7.50;99.90;;;;;;5001285;28;20060;-71
2022/11/23 00:58:53;;;;;;;19.33;10.93;;;7.50;99.90;;;;;;4997513;28;20042;-71
2022/11/23 01:01:22;;;;;;;24.02;11.60;;;7.50;99.90;;;;;;4996353;28;20042;-71
2022/11/23 01:03:50;;;;;;;18.67;11.10;;;7.50;99.90;;;;;;4998677;28;20561;-70
2022/11/23 01:06:19;;;;;;;18.27;11.10;;;7.50;99.90;;;;;;4998884;28;20058;-71
2022/11/23 01:08:56;;;;;;;21.55;11.40;;;7.50;99.90;;;;;;4996165;28;20449;-71
2022/11/23 01:11:23;;;;;;;17.13;10.52;;;7.50;99.90;;;;;;5002360;28;20089;-71
2022/11/23 01:13:50;;;;;;;17.90;10.80;;;7.50;99.90;;;;;;5002322;28;20049;-71
2022/11/23 01:16:20;;;;;;;17.48;11.18;;;7.60;99.90;;;;;;5002889;28;20042;-71
2022/11/23 01:18:46;;;;;;;17.48;10.77;;;7.60;99.90;;;;;;5000764;28;20089;-71
2022/11/23 01:21:12;;;;;;;19.70;10.77;;;7.60;99.90;;;;;;5006274;28;20085;-71
2022/11/23 01:23:38;;;;;;;19.95;10.48;;;7.60;99.90;;;;;;5007349;28;20499;-70
2022/11/23 01:26:10;;;;;;;20.27;10.70;;;7.70;99.90;;;;;;5005615;28;20052;-71
2022/11/23 01:28:37;;;;;;;17.85;10.77;;;7.60;99.90;;;;;;5005138;28;20126;-71
2022/11/23 01:31:09;;;;;;;20.52;10.23;;;7.70;99.90;;;;;;5003989;28;20132;-71
2022/11/23 01:33:35;;;;;;;22.92;10.70;;;7.60;99.90;;;;;;5006215;28;20040;-70
2022/11/23 01:36:14;;;;;;;18.33;10.52;;;7.60;99.90;;;;;;5004327;28;20046;-70
2022/11/23 01:38:41;;;;;;;18.40;11.05;;;7.60;99.90;;;;;;4988678;28;20108;-70
2022/11/23 01:41:11;;;;;;;19.25;11.13;;;7.60;99.90;;;;;;5006462;28;20427;-70
2022/11/23 01:43:37;;;;;;;16.55;10.68;;;7.60;99.90;;;;;;5004728;28;20117;-71
2022/11/23 01:46:03;;;;;;;18.30;11.52;;;7.60;99.90;;;;;;5005285;28;20507;-70
2022/11/23 01:48:31;;;;;;;16.23;11.05;;;7.70;99.90;;;;;;5002291;28;20046;-70
2022/11/23 01:50:59;;;;;;;14.93;10.63;;;7.70;99.90;;;;;;4987160;28;20127;-71
2022/11/23 01:53:27;;;;;;;22.67;12.10;;;7.70;99.90;;;;;;5007999;28;20037;-71
2022/11/23 01:55:57;;;;;;;20.40;11.15;;;7.70;99.90;;;;;;4990584;28;20034;-71
2022/11/23 01:58:30;;;;;;;24.10;11.07;;;7.70;99.90;;;;;;5004317;28;20068;-71
2022/11/23 02:00:57;;;;;;;18.27;10.43;;;7.70;99.90;;;;;;5003552;28;20048;-71
2022/11/23 02:03:23;;;;;;;20.92;11.23;;;7.70;99.90;;;;;;5004259;28;20050;-71
2022/11/23 02:05:58;;;;;;;17.35;10.57;;;7.70;99.90;;;;;;5007277;28;20749;-70
2022/11/23 02:08:25;;;;;;;19.92;11.35;;;7.70;99.90;;;;;;5005778;28;20164;-70
2022/11/23 02:10:51;;;;;;;22.95;11.32;;;7.70;99.90;;;;;;5006237;28;20132;-70
2022/11/23 02:13:17;;;;;;;22.40;11.77;;;7.70;99.90;;;;;;5005936;28;20044;-70
2022/11/23 02:15:43;;;;;;;20.25;10.90;;;7.70;99.90;;;;;;5003186;28;20719;-71
2022/11/23 02:18:20;;;;;;;22.80;11.07;;;7.70;99.90;;;;;;4988844;28;20555;-71
2022/11/23 02:20:46;;;;;;;19.77;11.20;;;7.70;99.90;;;;;;5008747;28;20121;-70
2022/11/23 02:23:15;;;;;;;20.45;11.25;;;7.70;99.90;;;;;;5008541;28;20104;-71
2022/11/23 02:25:44;;;;;;;23.02;12.13;;;7.70;99.90;;;;;;5007210;28;20399;-71
2022/11/23 02:28:12;;;;;;;24.27;12.50;;;7.70;99.90;;;;;;5008458;28;20046;-71
2022/11/23 02:30:39;;;;;;;24.83;11.38;;;7.70;99.90;;;;;;5006985;28;20681;-71
2022/11/23 02:33:05;;;;;;;22.05;11.68;;;7.70;99.90;;;;;;5008325;28;20656;-71
2022/11/23 02:35:32;;;;;;;22.45;11.63;;;7.80;99.90;;;;;;5008409;28;20042;-71
2022/11/23 02:38:01;;;;;;;21.65;10.90;;;7.80;99.90;;;;;;5007429;28;20407;-71
2022/11/23 02:40:26;;;;;;;25.45;11.90;;;7.80;99.90;;;;;;5007771;28;20686;-71
2022/11/23 02:42:52;;;;;;;25.95;12.00;;;8.10;99.90;;;;;;5006781;28;20045;-70
2022/11/23 02:45:32;;;;;;;22.60;11.50;;;7.80;99.90;;;;;;5007853;28;20101;-70
2022/11/23 02:47:58;;;;;;;20.85;11.63;;;7.80;99.90;;;;;;5007545;28;20107;-71
2022/11/23 02:50:26;;;;;;;23.73;12.52;;;7.80;99.90;;;;;;5006625;28;20491;-71
2022/11/23 02:52:52;;;;;;;20.98;12.48;;;7.80;99.90;;;;;;5006054;28;20114;-71
2022/11/23 02:55:18;;;;;;;21.10;11.77;;;7.80;99.90;;;;;;5006355;28;20057;-71
2022/11/23 02:57:43;;;;;;;27.77;12.57;;;7.80;99.90;;;;;;5006165;28;20045;-71
2022/11/23 03:00:10;;;;;;;23.73;12.93;;;7.80;99.90;;;;;;5006825;28;20037;-71
2022/11/23 03:02:36;;;;;;;23.30;12.63;;;7.80;99.90;;;;;;4987553;28;20503;-71
2022/11/23 03:05:02;;;;;;;19.60;12.13;;;7.80;99.90;;;;;;5004730;28;20046;-71
2022/11/23 03:07:28;;;;;;;25.10;13.05;;;8.10;99.90;;;;;;4983106;28;20042;-71
2022/11/23 03:09:53;;;;;;;25.73;13.85;;;7.80;99.90;;;;;;5006101;28;20100;-71
2022/11/23 03:12:19;;;;;;;25.40;14.10;;;7.80;99.90;;;;;;5004846;28;20107;-70
2022/11/23 03:14:45;;;;;;;25.65;13.73;;;7.80;99.90;;;;;;5005993;28;20045;-71
2022/11/23 03:17:11;;;;;;;25.80;13.75;;;7.80;99.90;;;;;;5004334;28;20050;-70
2022/11/23 03:19:36;;;;;;;26.63;14.35;;;7.80;99.90;;;;;;5005551;28;20088;-71
2022/11/23 03:22:03;;;;;;;24.92;14.13;;;7.80;99.90;;;;;;5005268;28;20038;-71
2022/11/23 03:24:28;;;;;;;31.50;14.48;;;7.90;99.90;;;;;;5004845;28;20572;-71
2022/11/23 03:26:54;;;;;;;26.73;14.98;;;7.80;99.90;;;;;;5007062;28;20050;-72
2022/11/23 03:29:25;;;;;;;28.83;15.48;;;7.90;99.90;;;;;;5005059;28;20502;-71
2022/11/23 03:31:54;;;;;;;24.45;14.30;;;7.90;99.90;;;;;;4985804;28;20077;-71
2022/11/23 03:34:20;;;;;;;25.58;15.50;;;7.90;99.90;;;;;;5000917;28;20484;-73
2022/11/23 03:36:45;;;;;;;31.63;15.98;;;7.90;99.90;;;;;;5005019;28;20046;-71
2022/11/23 03:39:11;;;;;;;30.15;14.40;;;7.90;99.90;;;;;;5005889;28;20091;-71
2022/11/23 03:41:37;;;;;;;32.08;16.50;;;7.90;99.90;;;;;;5003346;28;20045;-72
2022/11/23 03:44:03;;;;;;;26.65;15.88;;;7.80;99.90;;;;;;5001373;28;20053;-72
2022/11/23 03:46:29;;;;;;;29.05;15.20;;;7.90;99.90;;;;;;5000711;28;20050;-71
2022/11/23 03:48:55;;;;;;;28.80;14.98;;;7.90;99.90;;;;;;4984514;28;20046;-71
2022/11/23 03:51:21;;;;;;;29.67;16.45;;;7.90;99.90;;;;;;5001736;28;20049;-71
2022/11/23 03:53:47;;;;;;;29.88;16.08;;;7.80;99.90;;;;;;5002208;28;20046;-71
2022/11/23 03:56:13;;;;;;;27.65;16.48;;;7.90;99.90;;;;;;5004336;28;20034;-71
2022/11/23 03:58:39;;;;;;;28.45;15.38;;;7.90;99.90;;;;;;4994905;28;20042;-71
2022/11/23 04:01:06;;;;;;;31.50;17.63;;;7.80;99.90;;;;;;5002438;28;20410;-71
2022/11/23 04:03:32;;;;;;;28.80;17.73;;;7.90;99.90;;;;;;4985833;28;20049;-71
2022/11/23 04:05:59;;;;;;;29.52;16.33;;;7.80;99.90;;;;;;4985328;28;20087;-71
2022/11/23 04:08:27;;;;;;;33.10;17.13;;;7.90;99.90;;;;;;4987763;28;20081;-71
2022/11/23 04:10:57;;;;;;;31.00;17.17;;;8.20;99.90;;;;;;5004321;28;20044;-71
2022/11/23 04:13:23;;;;;;;34.33;18.00;;;7.90;99.90;;;;;;4985976;28;20116;-71
2022/11/23 04:15:49;;;;;;;29.70;17.20;;;7.90;99.90;;;;;;5004723;28;20398;-71
2022/11/23 04:18:15;;;;;;;31.60;17.38;;;7.90;99.90;;;;;;4987922;28;20044;-71
2022/11/23 04:20:41;;;;;;;34.90;18.35;;;7.90;99.90;;;;;;5004767;28;20140;-71
2022/11/23 04:23:07;;;;;;;34.58;18.73;;;7.80;99.90;;;;;;5005223;28;20129;-71
2022/11/23 04:25:32;;;;;;;40.05;19.80;;;7.90;99.90;;;;;;4999943;28;20041;-71
2022/11/23 04:27:58;;;;;;;37.08;20.30;;;7.90;99.90;;;;;;5005399;28;20044;-71
2022/11/23 04:30:27;;;;;;;35.35;19.83;;;7.90;99.90;;;;;;5001368;28;20407;-71
2022/11/23 04:32:53;;;;;;;32.22;18.95;;;8.00;99.90;;;;;;5004659;28;20097;-71
2022/11/23 04:35:19;;;;;;;35.80;21.00;;;7.80;99.90;;;;;;5004867;28;20491;-71
2022/11/23 04:37:45;;;;;;;36.38;19.75;;;7.90;99.90;;;;;;4989427;28;20038;-71
2022/11/23 04:40:11;;;;;;;34.17;20.50;;;7.80;99.90;;;;;;5005905;28;20045;-71
2022/11/23 04:42:37;;;;;;;33.03;20.67;;;7.80;99.90;;;;;;5005500;28;20095;-71
2022/11/23 04:45:03;;;;;;;42.97;20.85;;;7.80;99.90;;;;;;5006634;28;20495;-70
2022/11/23 04:47:28;;;;;;;35.72;20.25;;;7.80;99.90;;;;;;5000283;28;20073;-69
2022/11/23 04:49:54;;;;;;;39.60;20.63;;;7.80;99.90;;;;;;5005442;28;20092;-70
2022/11/23 04:52:20;;;;;;;37.63;21.00;;;7.90;99.90;;;;;;5005578;28;20136;-69
2022/11/23 04:54:46;;;;;;;36.30;21.25;;;7.80;99.90;;;;;;5007917;28;20133;-70
2022/11/23 04:57:11;;;;;;;42.47;22.77;;;7.80;99.90;;;;;;4991520;28;20041;-70
2022/11/23 04:59:37;;;;;;;34.55;19.88;;;7.80;99.90;;;;;;5008244;28;20484;-69
2022/11/23 05:02:03;;;;;;;37.67;20.65;;;7.80;99.90;;;;;;5006035;28;20033;-69
2022/11/23 05:04:28;;;;;;;36.38;21.02;;;7.80;99.90;;;;;;5008719;28;20092;-69
2022/11/23 05:06:54;;;;;;;41.42;21.70;;;7.80;99.90;;;;;;5009277;28;20132;-69
2022/11/23 05:09:20;;;;;;;37.85;21.92;;;7.60;99.90;;;;;;5009635;28;20049;-70
2022/11/23 05:11:46;;;;;;;38.58;21.63;;;7.80;99.90;;;;;;5007257;28;20052;-71
2022/11/23 05:14:13;;;;;;;41.83;23.25;;;7.80;99.90;;;;;;4990463;28;20046;-69
2022/11/23 05:16:40;;;;;;;40.97;21.40;;;7.80;99.90;;;;;;5007388;28;20420;-70
2022/11/23 05:19:06;;;;;;;46.70;23.77;;;7.80;99.90;;;;;;5008447;28;20078;-69
2022/11/23 05:21:31;;;;;;;42.53;23.15;;;7.80;99.90;;;;;;5007398;28;20081;-70
2022/11/23 05:23:57;;;;;;;46.28;23.25;;;7.80;99.90;;;;;;5006519;28;20124;-69
2022/11/23 05:26:23;;;;;;;41.88;21.98;;;7.80;99.90;;;;;;5007876;28;20042;-70
2022/11/23 05:28:48;;;;;;;38.70;22.63;;;7.80;99.90;;;;;;5008025;28;20042;-70
2022/11/23 05:31:14;;;;;;;47.45;23.10;;;7.80;99.90;;;;;;5005696;28;20057;-70
2022/11/23 05:33:40;;;;;;;42.70;24.05;;;7.90;99.90;;;;;;5008511;28;20038;-70
2022/11/23 05:36:06;;;;;;;44.47;24.35;;;7.90;99.90;;;;;;4998577;28;20038;-70
2022/11/23 05:38:31;;;;;;;43.97;24.05;;;7.90;99.90;;;;;;4998265;28;20050;-70
2022/11/23 05:40:57;;;;;;;43.53;24.98;;;7.90;99.90;;;;;;4987784;28;20049;-70
2022/11/23 05:43:23;;;;;;;44.03;24.30;;;7.90;99.90;;;;;;5000295;28;20413;-69
2022/11/23 05:45:49;;;;;;;43.63;24.23;;;7.90;99.90;;;;;;4983042;28;20129;-70
2022/11/23 05:48:14;;;;;;;42.30;22.92;;;7.90;99.90;;;;;;4988415;28;20045;-71
2022/11/23 05:50:40;;;;;;;43.75;25.33;;;7.90;99.90;;;;;;5004351;28;20421;-71
2022/11/23 05:53:06;;;;;;;44.33;25.10;;;7.90;99.90;;;;;;4989097;28;20109;-70
2022/11/23 05:55:32;;;;;;;48.13;24.52;;;7.90;99.90;;;;;;5003824;28;20046;-71
2022/11/23 05:57:57;;;;;;;43.95;23.73;;;8.30;99.90;;;;;;5001525;28;20037;-71
2022/11/23 06:00:23;;;;;;;40.42;24.42;;;7.90;99.90;;;;;;4999607;28;21384;-70
2022/11/23 06:02:49;;;;;;;39.63;22.27;;;8.00;99.90;;;;;;4992471;28;20049;-70
2022/11/23 06:05:14;;;;;;;37.28;23.50;;;7.90;99.90;;;;;;4981113;28;20057;-71
2022/11/23 06:07:40;;;;;;;38.38;23.10;;;7.90;99.90;;;;;;4996977;28;20100;-71
2022/11/23 06:10:06;;;;;;;40.17;23.25;;;7.90;99.90;;;;;;5000364;28;20045;-71
2022/11/23 06:12:32;;;;;;;45.08;24.52;;;7.90;99.90;;;;;;5001253;28;20050;-71
2022/11/23 06:14:58;;;;;;;42.60;22.27;;;8.00;99.90;;;;;;4997059;28;20045;-71
2022/11/23 06:17:24;;;;;;;41.30;23.33;;;8.00;99.90;;;;;;5002713;28;20172;-71
2022/11/23 06:19:52;;;;;;;40.95;22.70;;;8.00;99.90;;;;;;4984250;28;20053;-70
2022/11/23 06:22:18;;;;;;;42.88;22.23;;;8.00;99.90;;;;;;4996715;28;20046;-71
2022/11/23 06:24:43;;;;;;;39.38;22.25;;;8.00;99.90;;;;;;5000740;28;20045;-71
2022/11/23 06:27:09;;;;;;;36.92;22.73;;;8.00;99.90;;;;;;4985690;28;20128;-71
2022/11/23 06:29:35;;;;;;;39.83;21.08;;;8.00;99.90;;;;;;5000326;28;20072;-70
2022/11/23 06:32:00;;;;;;;36.08;20.63;;;8.00;99.90;;;;;;5001700;28;20034;-70
2022/11/23 06:34:26;;;;;;;32.20;20.20;;;8.00;99.90;;;;;;5003532;28;20475;-71
2022/11/23 06:36:52;;;;;;;36.45;20.48;;;8.00;99.90;;;;;;5002041;28;20042;-70
2022/11/23 06:39:17;;;;;;;33.38;21.20;;;8.00;99.90;;;;;;4998867;28;20038;-70
2022/11/23 06:41:43;;;;;;;38.40;21.00;;;7.90;99.90;;;;;;5003156;28;20585;-70
2022/11/23 06:44:09;;;;;;;33.65;20.05;;;7.90;99.90;;;;;;5002319;28;20115;-71
2022/11/23 06:46:35;;;;;;;39.20;20.20;;;8.00;99.90;;;;;;5001865;28;20070;-71
2022/11/23 06:49:00;;;;;;;37.45;20.08;;;7.90;99.90;;;;;;5001630;28;20110;-70
2022/11/23 06:51:26;;;;;;;33.58;18.80;;;7.90;99.90;;;;;;5001240;28;20060;-70
2022/11/23 06:53:52;;;;;;;32.72;18.45;;;8.00;99.90;;;;;;5004533;28;20460;-70
2022/11/23 06:56:18;;;;;;;30.30;18.35;;;7.90;99.90;;;;;;5001239;28;20042;-71
2022/11/23 06:58:44;;;;;;;32.58;18.38;;;7.90;99.90;;;;;;5003048;28;20092;-69
2022/11/23 07:01:10;;;;;;;28.15;17.52;;;7.90;99.90;;;;;;5004066;28;20038;-69
2022/11/23 07:03:35;;;;;;;26.55;17.20;;;7.90;99.90;;;;;;4996074;28;20055;-70
2022/11/23 07:06:09;;;;;;;32.25;17.38;;;7.90;99.90;;;;;;5001280;28;20062;-71
2022/11/23 07:08:38;;;;;;;28.98;17.13;;;7.90;99.90;;;;;;4998886;28;20057;-71
2022/11/23 07:11:07;;;;;;;27.02;15.77;;;7.80;99.90;;;;;;4996284;28;20053;-71
2022/11/23 07:13:33;;;;;;;27.42;16.35;;;7.80;99.90;;;;;;4998856;28;20407;-72
2022/11/23 07:15:59;;;;;;;28.10;14.13;;;7.80;99.90;;;;;;4983417;28;20038;-71
2022/11/23 07:18:25;;;;;;;32.75;15.48;;;7.80;99.90;;;;;;4982873;28;20084;-71
2022/11/23 07:20:51;;;;;;;25.38;14.35;;;7.80;99.90;;;;;;5004476;28;20045;-71
2022/11/23 07:23:16;;;;;;;25.08;14.02;;;7.80;99.90;;;;;;5003046;28;20050;-71
2022/11/23 07:25:42;;;;;;;24.92;13.40;;;8.30;99.90;;;;;;4985479;28;20620;-71
2022/11/23 07:28:10;;;;;;;28.45;14.02;;;7.80;99.90;;;;;;5002875;28;20049;-71
2022/11/23 07:30:36;;;;;;;24.60;13.70;;;7.80;99.90;;;;;;5002009;28;20093;-71
2022/11/23 07:33:07;;;;;;;26.15;13.07;;;7.80;99.90;;;;;;5000182;28;20130;-72
2022/11/23 07:35:34;;;;;;;20.10;11.70;;;7.80;99.90;;;;;;5004214;28;20081;-71
2022/11/23 07:38:01;;;;;;;22.13;11.73;;;7.80;99.90;;;;;;5003562;28;20052;-71
2022/11/23 07:40:27;;;;;;;24.00;11.93;;;7.80;99.90;;;;;;5001616;28;20046;-71
2022/11/23 07:42:57;;;;;;;24.95;11.70;;;7.70;99.90;;;;;;4997247;28;20515;-71
2022/11/23 07:45:23;;;;;;;25.93;11.37;;;7.70;99.90;;;;;;5000390;28;20065;-71
2022/11/23 07:48:03;;;;;;;18.42;10.57;;;7.70;99.90;;;;;;4998903;28;20391;-72
2022/11/23 07:50:29;;;;;;;20.90;10.85;;;7.80;99.90;;;;;;5002493;28;20042;-71
2022/11/23 07:52:55;;;;;;;19.38;10.48;;;7.80;99.90;;;;;;4980712;28;20041;-72
2022/11/23 07:55:22;;;;;;;21.08;10.40;;;7.70;99.90;;;;;;5002366;28;20049;-71
2022/11/23 07:57:52;;;;;;;21.27;10.65;;;7.70;99.90;;;;;;4983960;28;20108;-70
2022/11/23 08:00:19;;;;;;;20.67;10.05;;;7.70;99.90;;;;;;4998016;28;20042;-70
2022/11/23 08:02:45;;;;;;;22.45;10.02;;;7.70;99.90;;;;;;4995385;28;21355;-70
2022/11/23 08:05:10;;;;;;;20.45;10.43;;;7.70;99.90;;;;;;5001536;28;20045;-69
2022/11/23 08:07:36;;;;;;;23.08;9.85;;;7.70;99.90;;;;;;4999717;28;20058;-70
2022/11/23 08:10:02;;;;;;;18.00;9.27;;;7.70;99.90;;;;;;4995289;28;20056;-70
2022/11/23 08:12:28;;;;;;;21.58;9.88;;;7.80;99.90;;;;;;4998699;28;20041;-70
2022/11/23 08:14:54;;;;;;;21.50;10.25;;;7.70;99.90;;;;;;4996929;28;20065;-70
2022/11/23 08:17:19;;;;;;;20.77;9.90;;;7.80;99.90;;;;;;4990028;28;20046;-70
2022/11/23 08:19:45;;;;;;;20.65;10.27;;;7.70;99.90;;;;;;4994480;28;20141;-70
2022/11/23 08:22:11;;;;;;;18.27;9.25;;;7.70;99.90;;;;;;4998088;28;20510;-69
2022/11/23 08:24:36;;;;;;;21.83;8.75;;;7.80;99.90;;;;;;4996959;28;20587;-69
2022/11/23 08:27:02;;;;;;;22.30;9.77;;;7.80;99.90;;;;;;4994151;28;20048;-69
2022/11/23 08:29:29;;;;;;;22.92;8.40;;;7.80;99.90;;;;;;4997418;28;20046;-70
2022/11/23 08:31:57;;;;;;;19.88;8.63;;;7.80;99.90;;;;;;5001526;28;20049;-70
2022/11/23 08:34:23;;;;;;;19.95;8.50;;;7.80;99.90;;;;;;4995634;28;20050;-70
2022/11/23 08:36:49;;;;;;;23.17;8.48;;;7.80;99.90;;;;;;4980064;28;20038;-70
2022/11/23 08:39:16;;;;;;;18.80;7.90;;;7.80;99.90;;;;;;4997360;28;20064;-70
2022/11/23 08:41:42;;;;;;;16.98;7.93;;;7.80;99.90;;;;;;4977374;28;20046;-70
2022/11/23 08:44:09;;;;;;;15.70;6.90;;;7.80;99.90;;;;;;5001156;28;20066;-69
2022/11/23 08:46:36;;;;;;;18.20;7.07;;;7.80;99.90;;;;;;4995813;28;20614;-69
2022/11/23 08:49:02;;;;;;;22.75;7.85;;;7.90;99.90;;;;;;4989307;28;20387;-69
2022/11/23 08:51:28;;;;;;;13.82;7.13;;;7.90;99.90;;;;;;4991287;28;20127;-69
2022/11/23 08:53:54;;;;;;;20.20;7.45;;;7.90;99.90;;;;;;4993558;28;20049;-69
2022/11/23 08:56:19;;;;;;;16.50;6.88;;;7.90;99.90;;;;;;4986855;28;20164;-69
2022/11/23 08:58:46;;;;;;;17.48;6.55;;;7.90;99.90;;;;;;4989044;28;20100;-70
2022/11/23 09:01:14;;;;;;;19.73;6.93;;;7.90;99.90;;;;;;4984025;28;20160;-70
2022/11/23 09:03:41;;;;;;;21.88;6.90;;;8.20;99.90;;;;;;4981812;28;20056;-70
2022/11/23 09:06:07;;;;;;;18.48;6.28;;;8.00;99.90;;;;;;4993673;28;20061;-69
2022/11/23 09:08:34;;;;;;;15.88;7.13;;;8.00;99.90;;;;;;4981592;28;20136;-70
2022/11/23 09:11:01;;;;;;;19.13;6.47;;;8.00;99.90;;;;;;4997815;28;20061;-69
2022/11/23 09:13:28;;;;;;;17.10;6.10;;;8.10;99.90;;;;;;4996758;28;20255;-70
2022/11/23 09:16:01;;;;;;;20.02;6.32;;;8.00;99.90;;;;;;4997364;28;20049;-70
2022/11/23 09:18:29;;;;;;;18.63;6.40;;;8.00;99.90;;;;;;4995499;28;20447;-69
2022/11/23 09:20:56;;;;;;;16.83;6.07;;;8.10;99.90;;;;;;5002135;28;20371;-69
2022/11/23 09:23:22;;;;;;;15.85;5.90;;;8.10;99.90;;;;;;4988468;28;20062;-69
2022/11/23 09:25:49;;;;;;;18.30;5.75;;;8.10;99.90;;;;;;4979187;28;20169;-69
2022/11/23 09:28:18;;;;;;;19.58;5.97;;;8.10;99.90;;;;;;5000578;28;20210;-70
2022/11/23 09:30:46;;;;;;;21.38;6.30;;;8.20;99.90;;;;;;4998666;28;20128;-69
2022/11/23 09:33:12;;;;;;;17.08;6.32;;;8.20;99.90;;;;;;4986949;28;20474;-69
2022/11/23 09:35:37;;;;;;;15.18;5.40;;;8.30;99.90;;;;;;5001042;28;20121;-69
2022/11/23 09:38:03;;;;;;;23.35;5.97;;;8.30;99.90;;;;;;4983236;28;20642;-69
2022/11/23 09:40:37;;;;;;;20.25;5.20;;;8.30;99.90;;;;;;4976026;28;20041;-69
2022/11/23 09:43:29;;;;;;;23.27;5.55;;;8.30;99.90;;;;;;4992521;28;20042;-70
2022/11/23 09:46:00;;;;;;;18.00;5.30;;;8.40;99.90;;;;;;4993845;28;20042;-70
2022/11/23 09:48:49;;;;;;;20.23;5.13;;;8.60;99.90;;;;;;4993861;28;20096;-69
2022/11/23 09:51:20;;;;;;;16.05;5.30;;;8.40;99.90;;;;;;4993121;28;20166;-70
2022/11/23 09:53:51;;;;;;;18.95;5.35;;;8.40;99.90;;;;;;4993671;28;20111;-69
2022/11/23 09:56:22;;;;;;;;;;;8.40;99.90;;;;;;4994792;28;20093;-69
2022/11/23 09:58:55;;;;;;;18.38;4.35;;;8.40;99.90;;;;;;4993443;28;20703;-70
2022/11/23 10:01:21;;;;;;;15.77;4.50;;;8.40;99.90;;;;;;4993787;28;20058;-70
2022/11/23 10:03:47;;;;;;;14.35;4.22;;;8.50;99.90;;;;;;4996532;28;20038;-70
2022/11/23 10:06:27;;;;;;;11.52;4.28;;;8.50;99.90;;;;;;4998383;28;20076;-70
2022/11/23 10:09:23;;;;;;;18.10;4.57;;;8.70;99.90;;;;;;4999866;28;20041;-69
2022/11/23 10:12:10;;;;;;;13.27;4.40;;;8.40;99.90;;;;;;4999998;28;20332;-69
2022/11/23 10:15:01;;;;;;;13.93;3.83;;;8.40;99.90;;;;;;4979714;28;20041;-69
2022/11/23 10:17:49;;;;;;;15.25;4.07;;;8.50;99.90;;;;;;5002864;28;20038;-69
2022/11/23 10:20:41;;;;;;;17.10;4.40;;;8.50;99.90;;;;;;4994029;28;20050;-70
2022/11/23 10:23:20;;;;;;;14.20;4.15;;;8.50;99.90;;;;;;4989565;28;20121;-70
2022/11/23 10:25:49;;;;;;;16.25;4.63;;;8.50;99.90;;;;;;4997474;28;20042;-69
2022/11/23 10:28:18;;;;;;;16.55;4.38;;;8.50;99.90;;;;;;4991983;28;20651;-69
2022/11/23 10:30:55;;;;;;;16.65;4.60;;;8.50;99.90;;;;;;4995864;28;20129;-69
2022/11/23 10:33:31;;;;;;;16.67;4.85;;;8.50;99.90;;;;;;4994921;28;20045;-70
2022/11/23 10:35:57;;;;;;;21.55;4.95;;;8.50;99.90;;;;;;4996778;28;20092;-70
2022/11/23 10:38:27;;;;;;;17.80;4.90;;;8.50;99.90;;;;;;4984745;28;20046;-70
2022/11/23 10:41:07;;;;;;;16.83;5.35;;;8.50;99.90;;;;;;4982650;28;20042;-70
2022/11/23 10:44:03;;;;;;;24.98;4.72;;;8.50;99.90;;;;;;4992268;28;21134;-70
2022/11/23 10:46:32;;;;;;;19.70;4.90;;;8.60;99.90;;;;;;4995822;28;20052;-70
2022/11/23 10:49:18;;;;;;;20.95;4.70;;;8.60;99.90;;;;;;4999413;28;20057;-71
2022/11/23 10:51:53;;;;;;;15.70;4.43;;;8.60;99.90;;;;;;4978494;28;20081;-71
2022/11/23 10:54:21;;;;;;;16.83;4.72;;;8.60;99.90;;;;;;4997711;28;20082;-71
2022/11/23 10:56:48;;;;;;;20.65;4.60;;;8.60;99.90;;;;;;4996360;28;20953;-71
2022/11/23 10:59:36;;;;;;;14.55;3.95;;;8.70;99.90;;;;;;4994535;28;20846;-71
2022/11/23 11:02:12;;;;;;;16.73;4.30;;;8.60;99.90;;;;;;4991920;28;21973;-71
2022/11/23 11:04:38;;;;;;;21.95;4.25;;;8.70;99.90;;;;;;4988231;28;20053;-70
2022/11/23 11:07:24;;;;;;;18.55;4.15;;;8.70;99.90;;;;;;4972238;28;20065;-71
2022/11/23 11:09:58;;;;;;;18.88;4.25;;;8.70;99.90;;;;;;4995933;28;20056;-70
2022/11/23 11:12:26;;;;;;;16.48;4.05;;;8.70;99.90;;;;;;4993012;28;20388;-71
2022/11/23 11:15:01;;;;;;;14.05;3.25;;;8.80;99.90;;;;;;5000148;28;20038;-70
2022/11/23 11:17:32;;;;;;;22.15;4.35;;;8.80;99.90;;;;;;4998921;28;20053;-71
2022/11/23 11:19:59;;;;;;;;;;;8.80;99.90;;;;;;4998628;28;20119;-71
2022/11/23 11:22:35;;;;;;;14.93;3.67;;;8.80;99.90;;;;;;4995610;28;20334;-71
2022/11/23 11:25:03;;;;;;;17.42;3.53;;;8.90;99.90;;;;;;4979380;28;20057;-71
2022/11/23 11:27:33;;;;;;;14.45;3.30;;;8.90;99.90;;;;;;4982710;28;20534;-70
2022/11/23 11:30:19;;;;;;;20.17;3.65;;;9.00;99.90;;;;;;4973023;28;20139;-70
2022/11/23 11:32:53;;;;;;;15.48;2.88;;;9.00;99.90;;;;;;4987307;28;20042;-70
2022/11/23 11:35:33;;;;;;;15.30;3.75;;;9.10;99.90;;;;;;4973736;28;20091;-69
2022/11/23 11:38:13;;;;;;;20.48;3.45;;;9.00;99.90;;;;;;4987916;28;20050;-70
2022/11/23 11:40:48;;;;;;;18.10;3.35;;;9.10;99.90;;;;;;5000294;28;20041;-70
2022/11/23 11:43:21;;;;;;;17.67;2.95;;;9.10;99.90;;;;;;5001405;28;20037;-70
2022/11/23 11:45:51;;;;;;;12.93;2.85;;;9.10;99.90;;;;;;5001172;28;20042;-70
2022/11/23 11:48:38;;;;;;;16.67;2.83;;;9.10;99.90;;;;;;5001109;28;20050;-70
2022/11/23 11:51:12;;;;;;;17.58;2.90;;;9.10;99.90;;;;;;4983805;28;20738;-70
2022/11/23 11:53:52;;;;;;;17.05;2.58;;;9.10;99.90;;;;;;4999281;28;20054;-70
2022/11/23 11:56:32;;;;;;;16.80;2.90;;;9.20;99.90;;;;;;5000166;28;20041;-70
2022/11/23 11:59:19;;;;;;;19.23;3.38;;;9.20;99.90;;;;;;4985608;28;20045;-70
2022/11/23 12:01:57;;;;;;;18.23;3.63;;;9.20;99.90;;;;;;4980828;28;20329;-70
2022/11/23 12:04:40;;;;;;;16.33;2.90;;;9.20;99.90;;;;;;4997512;28;20056;-70
2022/11/23 12:07:23;;;;;;;15.98;2.67;;;9.20;99.90;;;;;;4994719;28;20057;-70
2022/11/23 12:09:54;;;;;;;18.33;3.03;;;9.30;99.90;;;;;;4992673;28;20056;-70
2022/11/23 12:12:21;;;;;;;16.92;3.15;;;9.30;99.90;;;;;;4985580;28;20042;-70
2022/11/23 12:14:47;;;;;;;16.13;3.03;;;9.40;99.90;;;;;;4989780;28;20046;-70
2022/11/23 12:17:15;;;;;;;14.75;2.55;;;9.30;99.90;;;;;;4996436;28;20499;-70
2022/11/23 12:19:58;;;;;;;14.63;2.78;;;9.30;99.90;;;;;;4998859;28;20074;-70
2022/11/23 12:22:31;;;;;;;21.77;4.00;;;9.70;99.90;;;;;;4983504;28;20057;-69
2022/11/23 12:25:23;;;;;;;20.63;3.40;;;9.40;99.90;;;;;;4980315;28;20073;-69
2022/11/23 12:28:12;;;;;;;14.55;2.42;;;9.40;99.90;;;;;;4987766;28;20066;-70
2022/11/23 12:31:04;;;;;;;16.73;2.60;;;9.40;99.90;;;;;;4966255;28;20069;-69
2022/11/23 12:33:42;;;;;;;18.77;3.20;;;9.50;99.90;;;;;;4990476;28;20159;-70
2022/11/23 12:36:26;;;;;;;11.82;2.58;;;9.50;99.90;;;;;;5000439;28;20487;-69
2022/11/23 12:39:00;;;;;;;17.42;2.78;;;9.50;99.90;;;;;;4993095;28;20045;-69
2022/11/23 12:41:35;;;;;;;18.17;3.45;;;9.60;99.90;;;;;;4998306;28;20092;-69
2022/11/23 12:44:27;;;;;;;12.10;2.95;;;9.50;99.90;;;;;;4995001;28;20100;-69
2022/11/23 12:47:20;;;;;;;16.33;2.80;;;9.60;99.90;;;;;;4968233;28;20062;-69
2022/11/23 12:50:09;;;;;;;13.93;2.28;;;9.60;99.90;;;;;;4999953;28;20038;-69